sensor_id;sensor_type;location;lat;lon;timestamp;P1;durP1;ratioP1;P2;durP2;ratioP2
11024;SDS011;22890;51.820;8.682;2022-12-18T00:02:07;2.47;;;1.13;;
11024;SDS011;22890;51.820;8.682;2022-12-18T00:04:34;1.60;;;0.80;;
11024;SDS011;22890;51.820;8.682;2022-12-18T00:07:01;2.13;;;0.97;;
11024;SDS011;22890;51.820;8.682;2022-12-18T00:09:29;1.30;;;0.60;;
11024;SDS011;22890;51.820;8.682;2022-12-18T00:12:05;1.67;;;1.17;;
11024;SDS011;22890;51.820;8.682;2022-12-18T00:14:41;0.83;;;0.83;;
11024;SDS011;22890;51.820;8.682;2022-12-18T00:17:08;2.03;;;0.70;;
11024;SDS011;22890;51.820;8.682;2022-12-18T00:19:35;1.57;;;0.93;;
11024;SDS011;22890;51.820;8.682;2022-12-18T00:22:02;2.30;;;1.10;;
11024;SDS011;22890;51.820;8.682;2022-12-18T00:24:29;2.20;;;0.97;;
11024;SDS011;22890;51.820;8.682;2022-12-18T00:26:56;1.20;;;0.80;;
11024;SDS011;22890;51.820;8.682;2022-12-18T00:29:23;0.93;;;0.77;;
11024;SDS011;22890;51.820;8.682;2022-12-18T00:31:51;0.73;;;0.73;;
11024;SDS011;22890;51.820;8.682;2022-12-18T00:34:18;4.00;;;0.70;;
11024;SDS011;22890;51.820;8.682;2022-12-18T00:36:46;1.37;;;0.57;;
11024;SDS011;22890;51.820;8.682;2022-12-18T00:39:14;1.70;;;1.13;;
11024;SDS011;22890;51.820;8.682;2022-12-18T00:41:43;1.00;;;0.80;;
11024;SDS011;22890;51.820;8.682;2022-12-18T00:44:30;0.90;;;0.80;;
11024;SDS011;22890;51.820;8.682;2022-12-18T00:46:57;3.10;;;1.83;;
11024;SDS011;22890;51.820;8.682;2022-12-18T00:49:24;2.63;;;1.77;;
11024;SDS011;22890;51.820;8.682;2022-12-18T00:51:51;5.07;;;1.57;;
11024;SDS011;22890;51.820;8.682;2022-12-18T00:54:19;6.10;;;2.90;;
11024;SDS011;22890;51.820;8.682;2022-12-18T00:56:46;5.07;;;2.80;;
11024;SDS011;22890;51.820;8.682;2022-12-18T00:59:16;2.60;;;1.17;;
11024;SDS011;22890;51.820;8.682;2022-12-18T01:01:44;2.10;;;1.13;;
11024;SDS011;22890;51.820;8.682;2022-12-18T01:04:11;0.60;;;0.60;;
11024;SDS011;22890;51.820;8.682;2022-12-18T01:06:38;1.77;;;1.10;;
11024;SDS011;22890;51.820;8.682;2022-12-18T01:09:05;1.50;;;1.17;;
11024;SDS011;22890;51.820;8.682;2022-12-18T01:11:35;1.33;;;0.70;;
11024;SDS011;22890;51.820;8.682;2022-12-18T01:14:03;2.87;;;0.90;;
11024;SDS011;22890;51.820;8.682;2022-12-18T01:16:30;1.47;;;1.13;;
11024;SDS011;22890;51.820;8.682;2022-12-18T01:18:57;1.23;;;1.00;;
11024;SDS011;22890;51.820;8.682;2022-12-18T01:21:26;0.30;;;0.30;;
11024;SDS011;22890;51.820;8.682;2022-12-18T01:23:53;0.60;;;0.60;;
11024;SDS011;22890;51.820;8.682;2022-12-18T01:26:22;0.90;;;0.77;;
11024;SDS011;22890;51.820;8.682;2022-12-18T01:28:50;0.97;;;0.90;;
11024;SDS011;22890;51.820;8.682;2022-12-18T01:31:19;1.23;;;0.70;;
11024;SDS011;22890;51.820;8.682;2022-12-18T01:33:51;1.97;;;0.87;;
11024;SDS011;22890;51.820;8.682;2022-12-18T01:36:23;2.00;;;0.93;;
11024;SDS011;22890;51.820;8.682;2022-12-18T01:39:01;3.43;;;0.80;;
11024;SDS011;22890;51.820;8.682;2022-12-18T01:41:30;2.53;;;0.60;;
11024;SDS011;22890;51.820;8.682;2022-12-18T01:49:54;1.00;;;0.50;;
11024;SDS011;22890;51.820;8.682;2022-12-18T01:52:21;1.13;;;1.03;;
11024;SDS011;22890;51.820;8.682;2022-12-18T01:54:49;0.93;;;0.87;;
11024;SDS011;22890;51.820;8.682;2022-12-18T01:57:18;1.90;;;0.83;;
11024;SDS011;22890;51.820;8.682;2022-12-18T01:59:45;1.50;;;1.40;;
11024;SDS011;22890;51.820;8.682;2022-12-18T02:02:18;6.07;;;1.40;;
11024;SDS011;22890;51.820;8.682;2022-12-18T02:04:46;0.47;;;0.47;;
11024;SDS011;22890;51.820;8.682;2022-12-18T02:10:21;0.80;;;0.80;;
11024;SDS011;22890;51.820;8.682;2022-12-18T02:13:12;1.20;;;0.87;;
11024;SDS011;22890;51.820;8.682;2022-12-18T02:18:29;2.80;;;1.00;;
11024;SDS011;22890;51.820;8.682;2022-12-18T02:26:15;1.17;;;0.90;;
11024;SDS011;22890;51.820;8.682;2022-12-18T02:28:55;1.50;;;0.77;;
11024;SDS011;22890;51.820;8.682;2022-12-18T02:31:28;0.80;;;0.80;;
11024;SDS011;22890;51.820;8.682;2022-12-18T02:34:00;0.50;;;0.50;;
11024;SDS011;22890;51.820;8.682;2022-12-18T02:36:33;0.50;;;0.50;;
11024;SDS011;22890;51.820;8.682;2022-12-18T02:39:04;0.90;;;0.90;;
11024;SDS011;22890;51.820;8.682;2022-12-18T02:41:35;1.10;;;0.60;;
11024;SDS011;22890;51.820;8.682;2022-12-18T02:44:06;1.40;;;0.83;;
11024;SDS011;22890;51.820;8.682;2022-12-18T02:52:02;0.70;;;0.50;;
11024;SDS011;22890;51.820;8.682;2022-12-18T02:55:00;0.40;;;0.40;;
11024;SDS011;22890;51.820;8.682;2022-12-18T03:00:29;0.50;;;0.50;;
11024;SDS011;22890;51.820;8.682;2022-12-18T03:03:28;1.60;;;1.03;;
11024;SDS011;22890;51.820;8.682;2022-12-18T03:06:01;1.30;;;0.90;;
11024;SDS011;22890;51.820;8.682;2022-12-18T03:08:32;13.97;;;0.87;;
11024;SDS011;22890;51.820;8.682;2022-12-18T03:11:04;0.60;;;0.60;;
11024;SDS011;22890;51.820;8.682;2022-12-18T03:13:36;0.60;;;0.60;;
11024;SDS011;22890;51.820;8.682;2022-12-18T03:16:14;1.30;;;0.60;;
11024;SDS011;22890;51.820;8.682;2022-12-18T03:18:46;0.97;;;0.80;;
11024;SDS011;22890;51.820;8.682;2022-12-18T03:21:23;0.83;;;0.70;;
11024;SDS011;22890;51.820;8.682;2022-12-18T03:23:56;0.50;;;0.50;;
11024;SDS011;22890;51.820;8.682;2022-12-18T03:26:25;0.50;;;0.50;;
11024;SDS011;22890;51.820;8.682;2022-12-18T03:29:03;1.03;;;0.60;;
11024;SDS011;22890;51.820;8.682;2022-12-18T03:31:36;1.30;;;0.70;;
11024;SDS011;22890;51.820;8.682;2022-12-18T03:34:09;0.43;;;0.43;;
11024;SDS011;22890;51.820;8.682;2022-12-18T03:36:44;1.00;;;0.60;;
11024;SDS011;22890;51.820;8.682;2022-12-18T03:39:12;0.70;;;0.60;;
11024;SDS011;22890;51.820;8.682;2022-12-18T03:44:43;0.90;;;0.70;;
11024;SDS011;22890;51.820;8.682;2022-12-18T03:47:25;1.27;;;0.80;;
11024;SDS011;22890;51.820;8.682;2022-12-18T03:52:47;1.93;;;0.80;;
11024;SDS011;22890;51.820;8.682;2022-12-18T03:55:16;1.13;;;0.90;;
11024;SDS011;22890;51.820;8.682;2022-12-18T03:57:48;0.60;;;0.50;;
11024;SDS011;22890;51.820;8.682;2022-12-18T04:00:17;1.63;;;0.60;;
11024;SDS011;22890;51.820;8.682;2022-12-18T04:02:54;1.27;;;1.10;;
11024;SDS011;22890;51.820;8.682;2022-12-18T04:05:31;2.70;;;0.90;;
11024;SDS011;22890;51.820;8.682;2022-12-18T04:08:00;1.13;;;0.70;;
11024;SDS011;22890;51.820;8.682;2022-12-18T04:10:29;3.43;;;0.83;;
11024;SDS011;22890;51.820;8.682;2022-12-18T04:12:57;2.00;;;0.70;;
11024;SDS011;22890;51.820;8.682;2022-12-18T04:15:24;2.37;;;0.77;;
11024;SDS011;22890;51.820;8.682;2022-12-18T04:17:52;1.10;;;1.00;;
11024;SDS011;22890;51.820;8.682;2022-12-18T04:20:22;2.00;;;1.10;;
11024;SDS011;22890;51.820;8.682;2022-12-18T04:22:49;2.00;;;1.17;;
11024;SDS011;22890;51.820;8.682;2022-12-18T04:25:18;1.53;;;1.20;;
11024;SDS011;22890;51.820;8.682;2022-12-18T04:27:56;4.40;;;1.00;;
11024;SDS011;22890;51.820;8.682;2022-12-18T04:30:23;0.63;;;0.63;;
11024;SDS011;22890;51.820;8.682;2022-12-18T04:32:50;2.00;;;1.13;;
11024;SDS011;22890;51.820;8.682;2022-12-18T04:35:19;2.10;;;1.30;;
11024;SDS011;22890;51.820;8.682;2022-12-18T04:37:46;3.27;;;1.43;;
11024;SDS011;22890;51.820;8.682;2022-12-18T04:40:14;1.37;;;1.03;;
11024;SDS011;22890;51.820;8.682;2022-12-18T04:42:44;2.33;;;1.30;;
11024;SDS011;22890;51.820;8.682;2022-12-18T04:45:11;2.73;;;1.57;;
11024;SDS011;22890;51.820;8.682;2022-12-18T04:47:38;2.00;;;1.27;;
11024;SDS011;22890;51.820;8.682;2022-12-18T04:50:05;1.47;;;1.10;;
11024;SDS011;22890;51.820;8.682;2022-12-18T04:52:32;2.67;;;1.43;;
11024;SDS011;22890;51.820;8.682;2022-12-18T04:55:00;0.90;;;0.90;;
11024;SDS011;22890;51.820;8.682;2022-12-18T04:57:26;1.67;;;1.10;;
11024;SDS011;22890;51.820;8.682;2022-12-18T04:59:53;2.53;;;1.30;;
11024;SDS011;22890;51.820;8.682;2022-12-18T05:02:21;2.77;;;1.40;;
11024;SDS011;22890;51.820;8.682;2022-12-18T05:04:48;1.37;;;1.00;;
11024;SDS011;22890;51.820;8.682;2022-12-18T05:07:15;0.87;;;0.77;;
11024;SDS011;22890;51.820;8.682;2022-12-18T05:09:42;5.63;;;1.10;;
11024;SDS011;22890;51.820;8.682;2022-12-18T05:12:10;1.70;;;1.30;;
11024;SDS011;22890;51.820;8.682;2022-12-18T05:14:37;2.83;;;1.27;;
11024;SDS011;22890;51.820;8.682;2022-12-18T05:17:04;2.07;;;1.10;;
11024;SDS011;22890;51.820;8.682;2022-12-18T05:19:31;1.60;;;0.97;;
11024;SDS011;22890;51.820;8.682;2022-12-18T05:21:58;2.43;;;1.20;;
11024;SDS011;22890;51.820;8.682;2022-12-18T05:24:26;2.93;;;0.83;;
11024;SDS011;22890;51.820;8.682;2022-12-18T05:26:53;2.23;;;1.10;;
11024;SDS011;22890;51.820;8.682;2022-12-18T05:29:19;1.97;;;1.27;;
11024;SDS011;22890;51.820;8.682;2022-12-18T05:31:46;1.37;;;1.00;;
11024;SDS011;22890;51.820;8.682;2022-12-18T05:34:14;1.90;;;1.20;;
11024;SDS011;22890;51.820;8.682;2022-12-18T05:36:41;2.70;;;1.37;;
11024;SDS011;22890;51.820;8.682;2022-12-18T05:39:09;1.50;;;1.40;;
11024;SDS011;22890;51.820;8.682;2022-12-18T05:41:36;1.03;;;1.03;;
11024;SDS011;22890;51.820;8.682;2022-12-18T05:44:03;3.13;;;2.00;;
11024;SDS011;22890;51.820;8.682;2022-12-18T05:46:31;1.87;;;1.03;;
11024;SDS011;22890;51.820;8.682;2022-12-18T05:49:01;3.07;;;1.93;;
11024;SDS011;22890;51.820;8.682;2022-12-18T05:51:28;4.50;;;1.67;;
11024;SDS011;22890;51.820;8.682;2022-12-18T05:53:55;3.90;;;2.10;;
11024;SDS011;22890;51.820;8.682;2022-12-18T05:56:22;3.97;;;1.70;;
11024;SDS011;22890;51.820;8.682;2022-12-18T05:58:53;3.03;;;1.87;;
11024;SDS011;22890;51.820;8.682;2022-12-18T06:01:21;1.40;;;1.30;;
11024;SDS011;22890;51.820;8.682;2022-12-18T06:03:50;2.77;;;1.73;;
11024;SDS011;22890;51.820;8.682;2022-12-18T06:06:19;3.27;;;1.73;;
11024;SDS011;22890;51.820;8.682;2022-12-18T06:08:48;2.37;;;1.90;;
11024;SDS011;22890;51.820;8.682;2022-12-18T06:11:17;3.63;;;1.63;;
11024;SDS011;22890;51.820;8.682;2022-12-18T06:13:45;2.23;;;1.57;;
11024;SDS011;22890;51.820;8.682;2022-12-18T06:16:12;4.23;;;1.67;;
11024;SDS011;22890;51.820;8.682;2022-12-18T06:18:40;2.27;;;1.33;;
11024;SDS011;22890;51.820;8.682;2022-12-18T06:21:06;2.43;;;1.60;;
11024;SDS011;22890;51.820;8.682;2022-12-18T06:23:33;5.57;;;2.60;;
11024;SDS011;22890;51.820;8.682;2022-12-18T06:26:08;2.70;;;1.63;;
11024;SDS011;22890;51.820;8.682;2022-12-18T06:28:37;3.10;;;1.53;;
11024;SDS011;22890;51.820;8.682;2022-12-18T06:31:04;2.33;;;1.40;;
11024;SDS011;22890;51.820;8.682;2022-12-18T06:33:32;4.20;;;1.77;;
11024;SDS011;22890;51.820;8.682;2022-12-18T06:36:10;3.67;;;2.13;;
11024;SDS011;22890;51.820;8.682;2022-12-18T06:38:38;2.63;;;1.87;;
11024;SDS011;22890;51.820;8.682;2022-12-18T06:41:16;2.57;;;2.37;;
11024;SDS011;22890;51.820;8.682;2022-12-18T06:43:45;3.43;;;1.87;;
11024;SDS011;22890;51.820;8.682;2022-12-18T06:46:12;3.43;;;1.80;;
11024;SDS011;22890;51.820;8.682;2022-12-18T06:48:39;3.30;;;1.73;;
11024;SDS011;22890;51.820;8.682;2022-12-18T06:51:06;3.23;;;1.93;;
11024;SDS011;22890;51.820;8.682;2022-12-18T06:53:33;5.03;;;1.87;;
11024;SDS011;22890;51.820;8.682;2022-12-18T06:56:05;6.37;;;1.63;;
11024;SDS011;22890;51.820;8.682;2022-12-18T06:58:36;1.83;;;1.43;;
11024;SDS011;22890;51.820;8.682;2022-12-18T07:01:04;2.83;;;2.03;;
11024;SDS011;22890;51.820;8.682;2022-12-18T07:03:33;4.53;;;1.80;;
11024;SDS011;22890;51.820;8.682;2022-12-18T07:05:59;1.90;;;1.10;;
11024;SDS011;22890;51.820;8.682;2022-12-18T07:08:28;3.70;;;2.20;;
11024;SDS011;22890;51.820;8.682;2022-12-18T07:10:56;1.97;;;1.67;;
11024;SDS011;22890;51.820;8.682;2022-12-18T07:13:23;2.07;;;1.60;;
11024;SDS011;22890;51.820;8.682;2022-12-18T07:15:50;2.03;;;1.83;;
11024;SDS011;22890;51.820;8.682;2022-12-18T07:18:18;4.37;;;2.20;;
11024;SDS011;22890;51.820;8.682;2022-12-18T07:20:45;3.10;;;1.50;;
11024;SDS011;22890;51.820;8.682;2022-12-18T07:23:13;2.50;;;1.63;;
11024;SDS011;22890;51.820;8.682;2022-12-18T07:25:40;2.67;;;1.43;;
11024;SDS011;22890;51.820;8.682;2022-12-18T07:28:07;3.80;;;2.07;;
11024;SDS011;22890;51.820;8.682;2022-12-18T07:30:42;7.87;;;4.17;;
11024;SDS011;22890;51.820;8.682;2022-12-18T07:33:09;10.33;;;3.70;;
11024;SDS011;22890;51.820;8.682;2022-12-18T07:35:36;5.97;;;3.00;;
11024;SDS011;22890;51.820;8.682;2022-12-18T07:38:03;3.90;;;2.57;;
11024;SDS011;22890;51.820;8.682;2022-12-18T07:40:31;6.33;;;3.03;;
11024;SDS011;22890;51.820;8.682;2022-12-18T07:42:58;7.83;;;2.93;;
11024;SDS011;22890;51.820;8.682;2022-12-18T07:45:25;4.53;;;2.53;;
11024;SDS011;22890;51.820;8.682;2022-12-18T07:47:54;6.20;;;2.53;;
11024;SDS011;22890;51.820;8.682;2022-12-18T07:50:21;2.23;;;1.73;;
11024;SDS011;22890;51.820;8.682;2022-12-18T07:52:50;2.57;;;1.93;;
11024;SDS011;22890;51.820;8.682;2022-12-18T07:55:16;3.37;;;1.73;;
11024;SDS011;22890;51.820;8.682;2022-12-18T07:57:43;5.70;;;2.20;;
11024;SDS011;22890;51.820;8.682;2022-12-18T08:00:17;4.57;;;2.47;;
11024;SDS011;22890;51.820;8.682;2022-12-18T08:02:46;5.37;;;2.43;;
11024;SDS011;22890;51.820;8.682;2022-12-18T08:05:14;4.20;;;2.27;;
11024;SDS011;22890;51.820;8.682;2022-12-18T08:07:41;5.27;;;2.57;;
11024;SDS011;22890;51.820;8.682;2022-12-18T08:10:08;3.93;;;2.30;;
11024;SDS011;22890;51.820;8.682;2022-12-18T08:12:35;4.83;;;2.43;;
11024;SDS011;22890;51.820;8.682;2022-12-18T08:15:02;3.43;;;2.10;;
11024;SDS011;22890;51.820;8.682;2022-12-18T08:17:30;5.30;;;2.53;;
11024;SDS011;22890;51.820;8.682;2022-12-18T08:19:57;5.70;;;2.73;;
11024;SDS011;22890;51.820;8.682;2022-12-18T08:22:24;5.40;;;2.67;;
11024;SDS011;22890;51.820;8.682;2022-12-18T08:24:51;7.47;;;3.57;;
11024;SDS011;22890;51.820;8.682;2022-12-18T08:27:18;4.20;;;2.57;;
11024;SDS011;22890;51.820;8.682;2022-12-18T08:29:55;4.07;;;2.30;;
11024;SDS011;22890;51.820;8.682;2022-12-18T08:32:22;3.60;;;2.30;;
11024;SDS011;22890;51.820;8.682;2022-12-18T08:34:50;4.97;;;2.33;;
11024;SDS011;22890;51.820;8.682;2022-12-18T08:37:17;4.50;;;3.00;;
11024;SDS011;22890;51.820;8.682;2022-12-18T08:39:44;5.50;;;2.73;;
11024;SDS011;22890;51.820;8.682;2022-12-18T08:42:11;7.53;;;3.70;;
11024;SDS011;22890;51.820;8.682;2022-12-18T08:45:04;4.60;;;2.30;;
11024;SDS011;22890;51.820;8.682;2022-12-18T08:47:31;4.43;;;2.23;;
11024;SDS011;22890;51.820;8.682;2022-12-18T08:49:58;7.87;;;3.40;;
11024;SDS011;22890;51.820;8.682;2022-12-18T08:52:25;6.23;;;3.17;;
11024;SDS011;22890;51.820;8.682;2022-12-18T08:54:52;6.37;;;3.10;;
11024;SDS011;22890;51.820;8.682;2022-12-18T08:57:19;5.07;;;3.37;;
11024;SDS011;22890;51.820;8.682;2022-12-18T08:59:46;7.63;;;3.20;;
11024;SDS011;22890;51.820;8.682;2022-12-18T09:02:14;5.73;;;3.20;;
11024;SDS011;22890;51.820;8.682;2022-12-18T09:04:41;7.10;;;3.70;;
11024;SDS011;22890;51.820;8.682;2022-12-18T09:07:09;5.10;;;3.00;;
11024;SDS011;22890;51.820;8.682;2022-12-18T09:09:36;5.23;;;2.77;;
11024;SDS011;22890;51.820;8.682;2022-12-18T09:12:03;9.47;;;3.73;;
11024;SDS011;22890;51.820;8.682;2022-12-18T09:14:30;3.83;;;3.03;;
11024;SDS011;22890;51.820;8.682;2022-12-18T09:16:57;6.40;;;2.97;;
11024;SDS011;22890;51.820;8.682;2022-12-18T09:19:24;6.77;;;2.80;;
11024;SDS011;22890;51.820;8.682;2022-12-18T09:21:51;7.33;;;3.23;;
11024;SDS011;22890;51.820;8.682;2022-12-18T09:24:18;6.67;;;4.17;;
11024;SDS011;22890;51.820;8.682;2022-12-18T09:26:48;7.53;;;2.97;;
11024;SDS011;22890;51.820;8.682;2022-12-18T09:29:22;6.43;;;3.30;;
11024;SDS011;22890;51.820;8.682;2022-12-18T09:31:49;5.80;;;3.23;;
11024;SDS011;22890;51.820;8.682;2022-12-18T09:34:16;6.83;;;3.13;;
11024;SDS011;22890;51.820;8.682;2022-12-18T09:36:43;7.07;;;3.33;;
11024;SDS011;22890;51.820;8.682;2022-12-18T09:39:12;5.03;;;3.37;;
11024;SDS011;22890;51.820;8.682;2022-12-18T09:44:16;5.47;;;3.80;;
11024;SDS011;22890;51.820;8.682;2022-12-18T09:47:03;5.33;;;3.17;;
11024;SDS011;22890;51.820;8.682;2022-12-18T09:49:38;9.97;;;3.37;;
11024;SDS011;22890;51.820;8.682;2022-12-18T09:54:38;8.10;;;3.60;;
11024;SDS011;22890;51.820;8.682;2022-12-18T09:57:11;5.60;;;2.73;;
11024;SDS011;22890;51.820;8.682;2022-12-18T09:59:40;5.83;;;2.70;;
11024;SDS011;22890;51.820;8.682;2022-12-18T10:02:20;7.03;;;3.03;;
11024;SDS011;22890;51.820;8.682;2022-12-18T10:04:54;9.17;;;2.83;;
11024;SDS011;22890;51.820;8.682;2022-12-18T10:07:42;6.27;;;3.60;;
11024;SDS011;22890;51.820;8.682;2022-12-18T10:10:15;4.87;;;2.60;;
11024;SDS011;22890;51.820;8.682;2022-12-18T10:15:50;6.37;;;3.13;;
11024;SDS011;22890;51.820;8.682;2022-12-18T10:18:22;6.13;;;2.77;;
11024;SDS011;22890;51.820;8.682;2022-12-18T10:21:13;5.63;;;2.70;;
11024;SDS011;22890;51.820;8.682;2022-12-18T10:23:49;3.73;;;2.60;;
11024;SDS011;22890;51.820;8.682;2022-12-18T10:26:28;6.57;;;3.10;;
11024;SDS011;22890;51.820;8.682;2022-12-18T10:28:58;4.00;;;2.40;;
11024;SDS011;22890;51.820;8.682;2022-12-18T10:31:30;6.10;;;3.33;;
11024;SDS011;22890;51.820;8.682;2022-12-18T10:33:58;4.97;;;2.93;;
11024;SDS011;22890;51.820;8.682;2022-12-18T10:36:25;4.23;;;2.40;;
11024;SDS011;22890;51.820;8.682;2022-12-18T10:38:52;3.77;;;2.67;;
11024;SDS011;22890;51.820;8.682;2022-12-18T10:43:48;5.53;;;3.07;;
11024;SDS011;22890;51.820;8.682;2022-12-18T10:46:19;4.97;;;2.73;;
11024;SDS011;22890;51.820;8.682;2022-12-18T10:48:48;5.10;;;2.93;;
11024;SDS011;22890;51.820;8.682;2022-12-18T10:51:22;5.57;;;3.17;;
11024;SDS011;22890;51.820;8.682;2022-12-18T10:54:00;4.10;;;2.20;;
11024;SDS011;22890;51.820;8.682;2022-12-18T10:56:43;5.93;;;2.63;;
11024;SDS011;22890;51.820;8.682;2022-12-18T10:59:12;4.03;;;2.77;;
11024;SDS011;22890;51.820;8.682;2022-12-18T11:04:25;6.83;;;2.67;;
11024;SDS011;22890;51.820;8.682;2022-12-18T11:09:27;8.07;;;2.57;;
11024;SDS011;22890;51.820;8.682;2022-12-18T11:12:20;4.87;;;2.20;;
11024;SDS011;22890;51.820;8.682;2022-12-18T11:17:22;5.30;;;2.70;;
11024;SDS011;22890;51.820;8.682;2022-12-18T11:19:59;4.93;;;2.57;;
11024;SDS011;22890;51.820;8.682;2022-12-18T11:22:36;2.87;;;2.07;;
11024;SDS011;22890;51.820;8.682;2022-12-18T11:25:05;6.03;;;2.50;;
11024;SDS011;22890;51.820;8.682;2022-12-18T11:28:01;6.50;;;3.23;;
11024;SDS011;22890;51.820;8.682;2022-12-18T11:30:34;3.87;;;2.37;;
11024;SDS011;22890;51.820;8.682;2022-12-18T11:33:05;12.33;;;3.23;;
11024;SDS011;22890;51.820;8.682;2022-12-18T11:35:51;4.77;;;2.60;;
11024;SDS011;22890;51.820;8.682;2022-12-18T11:38:26;4.57;;;2.40;;
11024;SDS011;22890;51.820;8.682;2022-12-18T11:41:24;5.30;;;1.97;;
11024;SDS011;22890;51.820;8.682;2022-12-18T11:44:16;6.17;;;2.97;;
11024;SDS011;22890;51.820;8.682;2022-12-18T11:46:55;4.70;;;2.83;;
11024;SDS011;22890;51.820;8.682;2022-12-18T11:49:33;4.73;;;2.73;;
11024;SDS011;22890;51.820;8.682;2022-12-18T11:54:28;4.20;;;2.33;;
11024;SDS011;22890;51.820;8.682;2022-12-18T11:59:55;3.83;;;2.57;;
11024;SDS011;22890;51.820;8.682;2022-12-18T12:11:02;5.27;;;2.93;;
11024;SDS011;22890;51.820;8.682;2022-12-18T12:16:08;6.93;;;3.20;;
11024;SDS011;22890;51.820;8.682;2022-12-18T12:32:24;3.40;;;2.40;;
11024;SDS011;22890;51.820;8.682;2022-12-18T12:38:03;4.20;;;2.53;;
11024;SDS011;22890;51.820;8.682;2022-12-18T12:40:51;4.30;;;2.83;;
11024;SDS011;22890;51.820;8.682;2022-12-18T12:43:31;4.90;;;2.43;;
11024;SDS011;22890;51.820;8.682;2022-12-18T12:46:17;4.13;;;2.30;;
11024;SDS011;22890;51.820;8.682;2022-12-18T12:48:56;3.77;;;2.00;;
11024;SDS011;22890;51.820;8.682;2022-12-18T12:51:34;4.30;;;2.20;;
11024;SDS011;22890;51.820;8.682;2022-12-18T12:54:04;4.17;;;2.40;;
11024;SDS011;22890;51.820;8.682;2022-12-18T12:59:34;2.97;;;2.00;;
11024;SDS011;22890;51.820;8.682;2022-12-18T13:02:18;4.40;;;2.40;;
11024;SDS011;22890;51.820;8.682;2022-12-18T13:07:40;5.63;;;2.80;;
11024;SDS011;22890;51.820;8.682;2022-12-18T13:12:52;2.63;;;2.00;;
11024;SDS011;22890;51.820;8.682;2022-12-18T13:15:34;4.40;;;2.13;;
11024;SDS011;22890;51.820;8.682;2022-12-18T13:20:42;3.20;;;1.73;;
11024;SDS011;22890;51.820;8.682;2022-12-18T13:25:53;4.00;;;2.27;;
11024;SDS011;22890;51.820;8.682;2022-12-18T13:33:41;2.43;;;1.90;;
11024;SDS011;22890;51.820;8.682;2022-12-18T13:36:30;3.73;;;1.50;;
11024;SDS011;22890;51.820;8.682;2022-12-18T13:41:49;3.40;;;2.67;;
11024;SDS011;22890;51.820;8.682;2022-12-18T13:44:25;4.53;;;2.23;;
11024;SDS011;22890;51.820;8.682;2022-12-18T13:49:54;3.10;;;2.10;;
11024;SDS011;22890;51.820;8.682;2022-12-18T13:52:24;3.53;;;2.27;;
11024;SDS011;22890;51.820;8.682;2022-12-18T13:54:55;5.23;;;2.77;;
11024;SDS011;22890;51.820;8.682;2022-12-18T13:57:29;3.53;;;2.53;;
11024;SDS011;22890;51.820;8.682;2022-12-18T14:02:49;7.10;;;2.80;;
11024;SDS011;22890;51.820;8.682;2022-12-18T14:07:53;3.70;;;2.30;;
11024;SDS011;22890;51.820;8.682;2022-12-18T14:10:21;5.03;;;2.53;;
11024;SDS011;22890;51.820;8.682;2022-12-18T14:13:10;2.83;;;2.07;;
11024;SDS011;22890;51.820;8.682;2022-12-18T14:15:43;4.20;;;3.10;;
11024;SDS011;22890;51.820;8.682;2022-12-18T14:21:00;4.60;;;2.27;;
11024;SDS011;22890;51.820;8.682;2022-12-18T14:23:31;6.07;;;3.40;;
11024;SDS011;22890;51.820;8.682;2022-12-18T14:26:23;5.83;;;3.60;;
11024;SDS011;22890;51.820;8.682;2022-12-18T14:28:55;7.27;;;3.90;;
11024;SDS011;22890;51.820;8.682;2022-12-18T14:31:45;5.33;;;3.10;;
11024;SDS011;22890;51.820;8.682;2022-12-18T14:34:18;6.87;;;3.17;;
11024;SDS011;22890;51.820;8.682;2022-12-18T14:36:52;8.20;;;4.77;;
11024;SDS011;22890;51.820;8.682;2022-12-18T14:39:20;6.07;;;3.70;;
11024;SDS011;22890;51.820;8.682;2022-12-18T14:41:50;5.83;;;2.80;;
11024;SDS011;22890;51.820;8.682;2022-12-18T14:44:18;4.50;;;3.10;;
11024;SDS011;22890;51.820;8.682;2022-12-18T14:46:47;4.63;;;2.63;;
11024;SDS011;22890;51.820;8.682;2022-12-18T14:49:32;6.13;;;2.90;;
11024;SDS011;22890;51.820;8.682;2022-12-18T14:52:06;8.77;;;3.00;;
11024;SDS011;22890;51.820;8.682;2022-12-18T14:54:52;7.17;;;4.27;;
11024;SDS011;22890;51.820;8.682;2022-12-18T14:57:27;5.17;;;3.00;;
11024;SDS011;22890;51.820;8.682;2022-12-18T15:00:06;7.50;;;3.77;;
11024;SDS011;22890;51.820;8.682;2022-12-18T15:02:34;3.93;;;3.10;;
11024;SDS011;22890;51.820;8.682;2022-12-18T15:05:14;4.97;;;2.57;;
11024;SDS011;22890;51.820;8.682;2022-12-18T15:07:51;5.13;;;3.43;;
11024;SDS011;22890;51.820;8.682;2022-12-18T15:10:28;5.80;;;3.40;;
11024;SDS011;22890;51.820;8.682;2022-12-18T15:20:42;6.23;;;4.23;;
11024;SDS011;22890;51.820;8.682;2022-12-18T15:26:14;4.73;;;3.33;;
11024;SDS011;22890;51.820;8.682;2022-12-18T15:28:52;6.70;;;3.70;;
11024;SDS011;22890;51.820;8.682;2022-12-18T15:36:19;6.33;;;3.57;;
11024;SDS011;22890;51.820;8.682;2022-12-18T15:38:52;5.40;;;3.87;;
11024;SDS011;22890;51.820;8.682;2022-12-18T15:41:28;9.13;;;4.67;;
11024;SDS011;22890;51.820;8.682;2022-12-18T15:43:55;8.37;;;4.90;;
11024;SDS011;22890;51.820;8.682;2022-12-18T15:46:23;8.20;;;4.40;;
11024;SDS011;22890;51.820;8.682;2022-12-18T15:48:54;7.20;;;3.70;;
11024;SDS011;22890;51.820;8.682;2022-12-18T15:53:58;8.13;;;3.70;;
11024;SDS011;22890;51.820;8.682;2022-12-18T15:56:27;8.77;;;4.37;;
11024;SDS011;22890;51.820;8.682;2022-12-18T15:59:20;7.33;;;4.13;;
11024;SDS011;22890;51.820;8.682;2022-12-18T16:01:48;9.17;;;4.40;;
11024;SDS011;22890;51.820;8.682;2022-12-18T16:04:18;8.47;;;4.83;;
11024;SDS011;22890;51.820;8.682;2022-12-18T16:06:47;9.20;;;5.17;;
11024;SDS011;22890;51.820;8.682;2022-12-18T16:09:34;7.40;;;4.37;;
11024;SDS011;22890;51.820;8.682;2022-12-18T16:12:01;12.40;;;5.47;;
11024;SDS011;22890;51.820;8.682;2022-12-18T16:14:29;6.73;;;4.10;;
11024;SDS011;22890;51.820;8.682;2022-12-18T16:17:01;9.43;;;4.80;;
11024;SDS011;22890;51.820;8.682;2022-12-18T16:19:31;9.83;;;5.37;;
11024;SDS011;22890;51.820;8.682;2022-12-18T16:21:58;8.33;;;5.27;;
11024;SDS011;22890;51.820;8.682;2022-12-18T16:24:26;6.30;;;4.30;;
11024;SDS011;22890;51.820;8.682;2022-12-18T16:26:55;10.70;;;5.60;;
11024;SDS011;22890;51.820;8.682;2022-12-18T16:29:23;13.50;;;4.57;;
11024;SDS011;22890;51.820;8.682;2022-12-18T16:31:53;9.27;;;5.30;;
11024;SDS011;22890;51.820;8.682;2022-12-18T16:34:22;9.27;;;5.10;;
11024;SDS011;22890;51.820;8.682;2022-12-18T16:36:54;8.00;;;5.10;;
11024;SDS011;22890;51.820;8.682;2022-12-18T16:39:30;10.20;;;5.47;;
11024;SDS011;22890;51.820;8.682;2022-12-18T16:41:58;12.00;;;5.33;;
11024;SDS011;22890;51.820;8.682;2022-12-18T16:44:27;10.53;;;5.63;;
11024;SDS011;22890;51.820;8.682;2022-12-18T16:46:54;12.43;;;5.30;;
11024;SDS011;22890;51.820;8.682;2022-12-18T16:49:27;10.00;;;6.03;;
11024;SDS011;22890;51.820;8.682;2022-12-18T16:51:54;14.43;;;5.90;;
11024;SDS011;22890;51.820;8.682;2022-12-18T16:54:22;9.87;;;5.50;;
11024;SDS011;22890;51.820;8.682;2022-12-18T16:56:49;10.47;;;5.47;;
11024;SDS011;22890;51.820;8.682;2022-12-18T16:59:17;10.97;;;6.00;;
11024;SDS011;22890;51.820;8.682;2022-12-18T17:01:45;9.97;;;5.83;;
11024;SDS011;22890;51.820;8.682;2022-12-18T17:04:13;12.77;;;5.53;;
11024;SDS011;22890;51.820;8.682;2022-12-18T17:06:43;10.87;;;6.13;;
11024;SDS011;22890;51.820;8.682;2022-12-18T17:09:11;10.20;;;6.40;;
11024;SDS011;22890;51.820;8.682;2022-12-18T17:11:40;13.70;;;6.73;;
11024;SDS011;22890;51.820;8.682;2022-12-18T17:14:08;13.93;;;7.17;;
11024;SDS011;22890;51.820;8.682;2022-12-18T17:16:40;13.87;;;6.37;;
11024;SDS011;22890;51.820;8.682;2022-12-18T17:19:08;11.63;;;5.87;;
11024;SDS011;22890;51.820;8.682;2022-12-18T17:21:43;14.83;;;6.03;;
11024;SDS011;22890;51.820;8.682;2022-12-18T17:24:10;12.73;;;7.80;;
11024;SDS011;22890;51.820;8.682;2022-12-18T17:26:38;14.73;;;6.60;;